createdAt,value
2022-09-06T00:01:12.626Z,98104.97
2022-09-06T00:03:41.602Z,98098.91
2022-09-06T00:06:14.879Z,98103.94
2022-09-06T00:08:47.548Z,98098.44
2022-09-06T00:11:16.104Z,98097.19
2022-09-06T00:13:45.379Z,98100.69
2022-09-06T00:16:20.350Z,98097.75
2022-09-06T00:18:48.764Z,98102.28
2022-09-06T00:21:19.562Z,98103.50
2022-09-06T00:23:48.087Z,98105.59
2022-09-06T00:26:16.530Z,98099.41
2022-09-06T00:28:44.985Z,98107.22
2022-09-06T00:31:25.152Z,98104.84
2022-09-06T00:33:54.760Z,98112.63
2022-09-06T00:36:23.581Z,98110.34
2022-09-06T00:38:51.857Z,98106.41
2022-09-06T00:41:20.651Z,98106.41
2022-09-06T00:43:48.935Z,98099.06
2022-09-06T00:46:23.076Z,98099.38
2022-09-06T00:48:53.753Z,98104.47
2022-09-06T00:51:22.261Z,98097.25
2022-09-06T00:53:50.772Z,98101.75
2022-09-06T00:56:19.018Z,98106.31
2022-09-06T00:58:48.113Z,98107.53
2022-09-06T01:01:16.691Z,98101.59
2022-09-06T01:03:45.153Z,98103.69
2022-09-06T01:06:24.931Z,98105.59
2022-09-06T01:09:20.686Z,98101.69
2022-09-06T01:12:08.152Z,98102.78
2022-09-06T01:15:06.400Z,98100.16
2022-09-06T01:17:53.247Z,98099.97
2022-09-06T01:20:42.310Z,98100.41
2022-09-06T01:23:29.158Z,98088.75
2022-09-06T01:26:00.282Z,98093.06
2022-09-06T01:28:34.386Z,98096.25
2022-09-06T01:31:20.308Z,98083.56
2022-09-06T01:34:08.363Z,98080.75
2022-09-06T01:37:10.289Z,98076.50
2022-09-06T01:39:40.564Z,98079.66
2022-09-06T01:42:19.384Z,98068.94
2022-09-06T01:44:55.455Z,98080.38
2022-09-06T01:47:48.949Z,98082.25
2022-09-06T01:50:21.030Z,98076.41
2022-09-06T01:53:30.442Z,98075.06
2022-09-06T01:56:20.903Z,98072.22
2022-09-06T01:58:55.513Z,98076.25
2022-09-06T02:02:05.611Z,98068.19
2022-09-06T02:04:46.590Z,98066.69
2022-09-06T02:07:29.316Z,98069.19
2022-09-06T02:10:02.060Z,98070.38
2022-09-06T02:12:30.495Z,98061.84
2022-09-06T02:15:05.638Z,98066.16
2022-09-06T02:17:36.549Z,98066.38
2022-09-06T02:20:14.874Z,98061.06
2022-09-06T02:22:45.254Z,98060.44
2022-09-06T02:25:20.292Z,98063.66
2022-09-06T02:27:48.631Z,98059.25
2022-09-06T02:30:17.582Z,98059.22
2022-09-06T02:32:54.123Z,98060.56
2022-09-06T02:35:22.417Z,98059.41
2022-09-06T02:37:50.956Z,98067.28
2022-09-06T02:40:19.260Z,98055.59
2022-09-06T02:42:47.685Z,98064.97
2022-09-06T02:45:16.192Z,98060.38
2022-09-06T02:47:44.484Z,98060.25
2022-09-06T02:50:13.569Z,98053.25
2022-09-06T02:52:42.464Z,98058.63
2022-09-06T02:55:11.917Z,98065.78
2022-09-06T02:57:40.760Z,98063.31
2022-09-06T03:00:09.656Z,98064.78
2022-09-06T03:02:37.926Z,98071.09
2022-09-06T03:05:06.403Z,98068.31
2022-09-06T03:07:35.172Z,98057.06
2022-09-06T03:10:05.298Z,98065.84
2022-09-06T03:12:33.607Z,98069.78
2022-09-06T03:15:01.840Z,98064.59
2022-09-06T03:17:30.060Z,98063.03
2022-09-06T03:19:58.337Z,98069.72
2022-09-06T03:22:26.790Z,98062.94
2022-09-06T03:24:55.051Z,98070.53
2022-09-06T03:27:23.791Z,98069.22
2022-09-06T03:29:52.076Z,98075.19
2022-09-06T03:32:20.436Z,98074.75
2022-09-06T03:34:48.735Z,98069.72
2022-09-06T03:37:17.048Z,98079.22
2022-09-06T03:39:46.460Z,98075.97
2022-09-06T03:42:15.425Z,98083.81
2022-09-06T03:44:43.871Z,98084.97
2022-09-06T03:47:12.176Z,98081.09
2022-09-06T03:49:41.121Z,98095.38
2022-09-06T03:52:09.543Z,98085.81
2022-09-06T03:54:37.816Z,98086.59
2022-09-06T03:57:06.149Z,98095.03
2022-09-06T03:59:35.192Z,98091.06
2022-09-06T04:02:03.661Z,98096.31
2022-09-06T04:04:32.110Z,98090.00
2022-09-06T04:07:00.513Z,98089.19
2022-09-06T04:09:28.896Z,98096.50
2022-09-06T04:11:57.655Z,98103.53
2022-09-06T04:14:25.971Z,98104.63
2022-09-06T04:16:54.364Z,98099.94
2022-09-06T04:19:24.076Z,98099.94
2022-09-06T04:21:52.299Z,98103.00
2022-09-06T04:24:21.837Z,98110.00
2022-09-06T04:26:50.116Z,98102.56
2022-09-06T04:29:18.487Z,98107.28
2022-09-06T04:31:47.383Z,98099.28
2022-09-06T04:34:17.318Z,98104.16
2022-09-06T04:36:48.466Z,98096.06
2022-09-06T04:39:17.399Z,98103.09
2022-09-06T04:41:45.892Z,98097.94
2022-09-06T04:44:14.266Z,98096.97
2022-09-06T04:46:42.761Z,98101.19
2022-09-06T04:49:11.204Z,98097.31
2022-09-06T04:51:39.908Z,98100.22
2022-09-06T04:54:08.280Z,98095.59
2022-09-06T04:56:36.677Z,98097.44
2022-09-06T04:59:04.961Z,98096.56
2022-09-06T05:01:33.390Z,98095.34
2022-09-06T05:04:01.860Z,98089.03
2022-09-06T05:06:30.371Z,98092.31
2022-09-06T05:08:59.290Z,98099.59
2022-09-06T05:11:27.944Z,98097.94
2022-09-06T05:13:56.433Z,98100.22
2022-09-06T05:16:25.405Z,98095.16
2022-09-06T05:18:55.989Z,98094.81
2022-09-06T05:21:31.684Z,98097.59
2022-09-06T05:24:04.342Z,98097.88
2022-09-06T05:26:32.949Z,98097.56
2022-09-06T05:29:01.245Z,98093.31
2022-09-06T05:31:31.175Z,98095.06
2022-09-06T05:33:59.763Z,98092.19
2022-09-06T05:36:28.825Z,98096.25
2022-09-06T05:38:57.296Z,98095.66
2022-09-06T05:41:26.147Z,98079.44
2022-09-06T05:43:54.646Z,98089.59
2022-09-06T05:46:23.014Z,98092.00
2022-09-06T05:49:01.426Z,98083.59
2022-09-06T05:51:29.853Z,98083.59
2022-09-06T05:53:58.253Z,98084.09
2022-09-06T05:56:26.627Z,98079.00
2022-09-06T05:58:55.213Z,98083.66
2022-09-06T06:01:27.598Z,98086.81
2022-09-06T06:04:00.671Z,98082.75
2022-09-06T06:06:31.124Z,98082.50
2022-09-06T06:08:59.897Z,98086.72
2022-09-06T06:11:28.494Z,98087.03
2022-09-06T06:13:56.988Z,98084.97
2022-09-06T06:16:25.909Z,98080.91
2022-09-06T06:18:54.544Z,98073.00
2022-09-06T06:21:26.088Z,98071.41
2022-09-06T06:23:55.961Z,98075.69
2022-09-06T06:26:24.735Z,98088.13
2022-09-06T06:28:53.859Z,98078.38
2022-09-06T06:31:22.933Z,98077.50
2022-09-06T06:33:51.315Z,98076.31
2022-09-06T06:36:22.051Z,98070.50
2022-09-06T06:38:52.844Z,98074.59
2022-09-06T06:41:24.304Z,98070.50
2022-09-06T06:43:56.553Z,98069.75
2022-09-06T06:46:26.962Z,98066.63
2022-09-06T06:48:55.643Z,98068.81
2022-09-06T06:51:29.035Z,98056.50
2022-09-06T06:53:58.314Z,98067.03
2022-09-06T06:56:31.459Z,98071.38
2022-09-06T06:59:01.471Z,98070.88
2022-09-06T07:01:31.310Z,98072.06
2022-09-06T07:04:00.487Z,98070.72
2022-09-06T07:09:18.674Z,98071.41
2022-09-06T07:11:48.897Z,98067.41
2022-09-06T07:14:17.969Z,98075.16
2022-09-06T07:16:46.500Z,98064.16
2022-09-06T07:22:05.370Z,98073.09
2022-09-06T07:24:34.226Z,98060.19
2022-09-06T07:29:51.845Z,98065.13
2022-09-06T07:32:20.879Z,98069.06
2022-09-06T07:34:49.266Z,98066.47
2022-09-06T07:37:17.887Z,98067.06
2022-09-06T07:39:46.575Z,98067.38
2022-09-06T07:42:16.563Z,98072.22
2022-09-06T07:44:44.929Z,98061.06
2022-09-06T07:55:38.682Z,98068.03
2022-09-06T07:58:07.640Z,98060.41
2022-09-06T08:00:36.524Z,98064.44
2022-09-06T08:03:04.939Z,98069.31
2022-09-06T08:11:12.162Z,98054.44
2022-09-06T08:13:40.523Z,98060.34
2022-09-06T08:16:11.509Z,98058.03
2022-09-06T08:18:40.122Z,98051.00
2022-09-06T08:21:13.117Z,98052.38
2022-09-06T08:23:45.350Z,98050.06
2022-09-06T08:26:15.006Z,98049.53
2022-09-06T08:28:43.585Z,98047.78
2022-09-06T08:31:13.611Z,98054.38
2022-09-06T08:33:42.457Z,98049.28
2022-09-06T08:36:11.721Z,98051.97
2022-09-06T08:38:41.381Z,98053.03
2022-09-06T08:41:12.276Z,98040.94
2022-09-06T08:43:48.997Z,98042.56
2022-09-06T08:46:17.337Z,98035.56
2022-09-06T08:48:46.037Z,98034.75
2022-09-06T08:51:46.627Z,98030.91
2022-09-06T08:54:22.798Z,98026.94
2022-09-06T08:57:16.254Z,98025.97
2022-09-06T08:59:44.952Z,98015.78
2022-09-06T09:02:18.610Z,98014.47
2022-09-06T09:04:53.957Z,98014.47
2022-09-06T09:07:54.572Z,98010.25
2022-09-06T09:10:29.621Z,98003.97
2022-09-06T09:12:59.070Z,98006.59
2022-09-06T09:15:29.130Z,97992.44
2022-09-06T09:17:57.660Z,97994.00
2022-09-06T09:20:26.050Z,97984.00
2022-09-06T09:22:54.378Z,97978.97
2022-09-06T09:25:23.672Z,97981.28
2022-09-06T09:28:01.532Z,97978.34
2022-09-06T09:30:49.141Z,97966.53
2022-09-06T09:33:31.129Z,97968.63
2022-09-06T09:36:10.417Z,97961.00
2022-09-06T09:38:45.859Z,97957.56
2022-09-06T09:41:34.503Z,97959.72
2022-09-06T09:44:05.923Z,97957.44
2022-09-06T09:46:39.363Z,97958.66
2022-09-06T09:49:15.881Z,97964.22
2022-09-06T09:51:46.388Z,97960.66
2022-09-06T09:54:15.911Z,97946.63
2022-09-06T09:56:50.047Z,97946.19
2022-09-06T09:59:26.723Z,97944.81
2022-09-06T10:01:57.408Z,97955.50
2022-09-06T10:04:48.489Z,97942.22
2022-09-06T10:07:18.767Z,97946.75
2022-09-06T10:10:10.798Z,97945.13
2022-09-06T10:12:40.557Z,97939.00
2022-09-06T10:15:12.084Z,97933.19
2022-09-06T10:17:52.871Z,97932.81
2022-09-06T10:20:24.317Z,97926.31
2022-09-06T10:23:17.795Z,97927.63
2022-09-06T10:25:49.538Z,97917.56
2022-09-06T10:28:58.458Z,97915.78
2022-09-06T10:31:42.550Z,97915.31
2022-09-06T10:34:53.919Z,97924.50
2022-09-06T10:37:54.032Z,97913.63
2022-09-06T10:40:29.213Z,97923.53
2022-09-06T10:43:00.436Z,97905.44
2022-09-06T10:46:09.740Z,97915.47
2022-09-06T10:48:42.539Z,97916.00
2022-09-06T10:51:29.541Z,97914.97
2022-09-06T10:54:10.511Z,97917.34
2022-09-06T10:56:56.605Z,97897.09
2022-09-06T11:00:05.321Z,97898.63
2022-09-06T11:05:52.183Z,97887.13
2022-09-06T11:11:35.760Z,97885.19
2022-09-06T11:14:09.356Z,97877.59
2022-09-06T11:16:48.623Z,97883.44
2022-09-06T11:19:35.171Z,97893.56
2022-09-06T11:22:30.485Z,97884.94
2022-09-06T11:25:05.921Z,97886.94
2022-09-06T11:27:36.540Z,97888.72
2022-09-06T11:30:07.775Z,97890.19
2022-09-06T11:32:45.045Z,97885.72
2022-09-06T11:35:33.108Z,97886.34
2022-09-06T11:38:17.105Z,97894.94
2022-09-06T11:40:48.888Z,97887.47
2022-09-06T11:43:19.181Z,97881.34
2022-09-06T11:45:51.895Z,97878.38
2022-09-06T11:48:35.659Z,97880.81
2022-09-06T11:51:19.824Z,97878.50
2022-09-06T11:53:51.372Z,97875.06
2022-09-06T11:56:34.748Z,97873.56
2022-09-06T11:59:20.086Z,97869.16
2022-09-06T12:02:09.027Z,97875.88
2022-09-06T12:05:04.658Z,97869.03
2022-09-06T12:07:36.203Z,97868.69
2022-09-06T12:10:42.446Z,97868.13
2022-09-06T12:13:43.206Z,97851.22
2022-09-06T12:16:13.033Z,97862.41
2022-09-06T12:18:52.341Z,97857.28
2022-09-06T12:21:53.247Z,97846.41
2022-09-06T12:24:34.542Z,97846.00
2022-09-06T12:27:16.004Z,97844.09
2022-09-06T12:29:50.686Z,97835.13
2022-09-06T12:32:21.028Z,97828.94
2022-09-06T12:37:56.316Z,97830.91
2022-09-06T12:40:26.570Z,97832.97
2022-09-06T12:42:55.949Z,97829.91
2022-09-06T12:45:27.391Z,97834.88
2022-09-06T12:48:08.850Z,97848.13
2022-09-06T12:50:37.271Z,97826.56
2022-09-06T12:53:22.764Z,97842.91
2022-09-06T12:56:06.550Z,97830.84
2022-09-06T12:58:36.536Z,97833.75
2022-09-06T13:01:17.558Z,97829.97
2022-09-06T13:03:54.398Z,97829.63
2022-09-06T13:06:27.294Z,97827.34
2022-09-06T13:08:57.428Z,97827.91
2022-09-06T13:11:37.321Z,97827.31
2022-09-06T13:14:14.398Z,97828.63
2022-09-06T13:16:47.604Z,97824.91
2022-09-06T13:19:30.113Z,97826.25
2022-09-06T13:22:00.662Z,97814.75
2022-09-06T13:24:36.313Z,97825.22
2022-09-06T13:27:37.871Z,97828.84
2022-09-06T13:30:10.248Z,97837.00
2022-09-06T13:32:46.470Z,97833.38
2022-09-06T13:35:24.335Z,97831.88
2022-09-06T13:37:53.271Z,97829.50
2022-09-06T13:41:09.687Z,97822.50
2022-09-06T13:43:35.215Z,97829.50
2022-09-06T13:46:08.211Z,97830.38
2022-09-06T13:48:37.002Z,97835.63
2022-09-06T13:51:10.733Z,97835.78
2022-09-06T13:53:40.317Z,97823.06
2022-09-06T13:56:09.088Z,97833.66
2022-09-06T13:58:37.524Z,97837.53
2022-09-06T14:01:10.266Z,97832.69
2022-09-06T14:03:40.909Z,97841.66
2022-09-06T14:06:11.554Z,97844.84
2022-09-06T14:09:05.730Z,97842.72
2022-09-06T14:11:30.479Z,97838.03
2022-09-06T14:13:59.500Z,97840.94
2022-09-06T14:16:29.046Z,97834.25
2022-09-06T14:18:59.157Z,97830.75
2022-09-06T14:21:27.587Z,97830.53
2022-09-06T14:23:58.919Z,97835.03
2022-09-06T14:26:30.563Z,97828.13
2022-09-06T14:28:59.085Z,97828.09
2022-09-06T14:31:28.020Z,97823.88
2022-09-06T14:33:56.821Z,97829.41
2022-09-06T14:36:27.977Z,97819.72
2022-09-06T14:38:58.778Z,97815.34
2022-09-06T14:41:27.657Z,97825.25
2022-09-06T14:43:58.470Z,97815.22
2022-09-06T14:46:30.494Z,97826.28
2022-09-06T14:49:00.387Z,97818.50
2022-09-06T14:51:29.320Z,97816.00
2022-09-06T14:54:00.631Z,97815.22
2022-09-06T14:56:30.739Z,97817.84
2022-09-06T14:59:00.548Z,97815.88
2022-09-06T15:01:33.062Z,97809.97
2022-09-06T15:04:09.036Z,97808.97
2022-09-06T15:06:40.509Z,97814.78
2022-09-06T15:09:12.174Z,97814.22
2022-09-06T15:11:51.986Z,97809.41
2022-09-06T15:14:28.242Z,97808.00
2022-09-06T15:17:00.161Z,97810.91
2022-09-06T15:19:29.390Z,97816.34
2022-09-06T15:21:58.169Z,97809.53
2022-09-06T15:24:27.674Z,97820.63
2022-09-06T15:27:00.239Z,97810.41
2022-09-06T15:29:29.081Z,97810.69
2022-09-06T15:31:58.773Z,97812.81
2022-09-06T15:34:27.297Z,97814.09
2022-09-06T15:36:57.356Z,97808.59
2022-09-06T15:39:25.935Z,97810.72
2022-09-06T15:41:58.276Z,97812.59
2022-09-06T15:44:29.084Z,97804.44
2022-09-06T15:46:59.630Z,97808.69
2022-09-06T15:49:31.251Z,97804.53
2022-09-06T15:52:02.373Z,97801.16
2022-09-06T15:54:49.539Z,97804.00
2022-09-06T15:57:18.764Z,97803.47
2022-09-06T15:59:48.880Z,97800.91
2022-09-06T16:02:17.400Z,97804.66
2022-09-06T16:04:47.054Z,97799.47
2022-09-06T16:07:16.221Z,97803.63
2022-09-06T16:09:48.045Z,97801.59
2022-09-06T16:12:17.003Z,97800.81
2022-09-06T16:14:48.528Z,97802.75
2022-09-06T16:17:21.929Z,97801.22
2022-09-06T16:19:51.928Z,97799.69
2022-09-06T16:22:24.025Z,97796.38
2022-09-06T16:24:53.939Z,97801.19
2022-09-06T16:27:22.353Z,97802.50
2022-09-06T16:29:56.506Z,97800.91
2022-09-06T16:32:26.270Z,97798.06
2022-09-06T16:34:55.434Z,97800.53
2022-09-06T16:37:24.616Z,97793.19
2022-09-06T16:39:56.343Z,97795.84
2022-09-06T16:42:25.782Z,97795.38
2022-09-06T16:44:56.688Z,97790.16
2022-09-06T16:47:25.235Z,97798.56
2022-09-06T16:49:53.752Z,97800.91
2022-09-06T16:52:24.319Z,97798.53
2022-09-06T16:54:54.221Z,97793.06
2022-09-06T16:57:23.191Z,97808.53
2022-09-06T16:59:53.905Z,97809.13
2022-09-06T17:02:23.521Z,97813.22
2022-09-06T17:04:54.958Z,97818.00
2022-09-06T17:07:24.179Z,97818.56
2022-09-06T17:09:52.524Z,97825.66
2022-09-06T17:12:21.384Z,97823.34
2022-09-06T17:14:49.773Z,97825.47
2022-09-06T17:17:18.769Z,97830.69
2022-09-06T17:19:51.626Z,97841.94
2022-09-06T17:22:23.102Z,97844.56
2022-09-06T17:24:53.062Z,97847.19
2022-09-06T17:27:23.507Z,97832.03
2022-09-06T17:29:53.310Z,97841.44
2022-09-06T17:32:25.007Z,97839.09
2022-09-06T17:35:04.229Z,97843.00
2022-09-06T17:37:35.749Z,97842.22
2022-09-06T17:40:10.901Z,97838.56
2022-09-06T17:42:39.413Z,97844.84
2022-09-06T17:45:10.137Z,97853.72
2022-09-06T17:47:38.743Z,97851.09
2022-09-06T17:50:10.287Z,97862.03
2022-09-06T17:52:40.443Z,97855.72
2022-09-06T17:55:09.272Z,97867.72
2022-09-06T17:57:38.283Z,97861.97
2022-09-06T18:00:11.371Z,97867.69
2022-09-06T18:02:41.383Z,97867.69
2022-09-06T18:05:12.387Z,97868.19
2022-09-06T18:07:42.259Z,97865.38
2022-09-06T18:10:11.218Z,97870.03
2022-09-06T18:12:39.623Z,97881.81
2022-09-06T18:15:10.110Z,97886.59
2022-09-06T18:17:38.630Z,97884.72
2022-09-06T18:20:08.099Z,97895.41
2022-09-06T18:22:43.976Z,97912.81
2022-09-06T18:25:15.213Z,97909.72
2022-09-06T18:27:50.477Z,97904.44
2022-09-06T18:30:20.264Z,97914.19
2022-09-06T18:32:48.855Z,97909.22
2022-09-06T18:35:18.571Z,97906.59
2022-09-06T18:37:48.148Z,97901.19
2022-09-06T18:40:45.701Z,97911.16
2022-09-06T18:46:13.952Z,97915.09
2022-09-06T18:48:47.767Z,97913.66
2022-09-06T18:51:16.734Z,97917.03
2022-09-06T18:53:45.278Z,97912.59
2022-09-06T18:56:14.909Z,97910.50
2022-09-06T18:58:43.548Z,97917.88
2022-09-06T19:01:14.280Z,97911.25
2022-09-06T19:03:45.410Z,97914.88
2022-09-06T19:06:17.017Z,97914.78
2022-09-06T19:08:47.902Z,97918.22
2022-09-06T19:11:19.549Z,97912.34
2022-09-06T19:14:19.464Z,97908.63
2022-09-06T19:16:55.056Z,97909.56
2022-09-06T19:19:25.944Z,97912.50
2022-09-06T19:21:59.797Z,97917.94
2022-09-06T19:24:31.570Z,97916.63
2022-09-06T19:27:05.715Z,97915.44
2022-09-06T19:29:38.064Z,97914.00
2022-09-06T19:32:16.221Z,97919.59
2022-09-06T19:35:06.359Z,97915.94
2022-09-06T19:37:38.518Z,97920.56
2022-09-06T19:40:08.416Z,97921.34
2022-09-06T19:42:41.139Z,97913.22
2022-09-06T19:45:12.787Z,97912.50
2022-09-06T19:47:43.778Z,97916.28
2022-09-06T19:50:12.843Z,97912.28
2022-09-06T19:52:42.641Z,97917.50
2022-09-06T19:55:11.019Z,97910.44
2022-09-06T19:57:40.034Z,97913.00
2022-09-06T20:00:10.780Z,97899.03
2022-09-06T20:02:43.084Z,97908.47
2022-09-06T20:05:16.883Z,97906.00
2022-09-06T20:07:45.299Z,97901.63
2022-09-06T20:10:15.258Z,97898.06
2022-09-06T20:12:47.540Z,97906.31
2022-09-06T20:15:39.168Z,97904.25
2022-09-06T20:18:20.349Z,97908.66
2022-09-06T20:21:02.970Z,97903.88
2022-09-06T20:23:32.282Z,97912.59
2022-09-06T20:26:06.142Z,97913.94
2022-09-06T20:28:38.704Z,97913.38
2022-09-06T20:31:11.149Z,97911.44
2022-09-06T20:33:40.521Z,97915.16
2022-09-06T20:36:12.900Z,97914.75
2022-09-06T20:38:43.270Z,97906.53
2022-09-06T20:41:16.239Z,97915.50
2022-09-06T20:43:44.683Z,97908.44
2022-09-06T20:46:18.103Z,97913.16
2022-09-06T20:48:52.568Z,97913.66
2022-09-06T20:51:24.185Z,97915.81
2022-09-06T20:53:55.121Z,97918.56
2022-09-06T20:56:26.306Z,97928.03
2022-09-06T20:59:03.483Z,97926.91
2022-09-06T21:01:34.887Z,97919.16
2022-09-06T21:04:04.876Z,97924.34
2022-09-06T21:06:36.491Z,97919.59
2022-09-06T21:09:10.878Z,97916.06
2022-09-06T21:11:39.309Z,97911.28
2022-09-06T21:14:07.936Z,97914.78
2022-09-06T21:16:36.956Z,97921.03
2022-09-06T21:19:08.779Z,97914.06
2022-09-06T21:21:37.141Z,97912.28
2022-09-06T21:24:06.657Z,97911.72
2022-09-06T21:26:35.088Z,97902.47
2022-09-06T21:29:03.961Z,97908.72
2022-09-06T21:31:33.704Z,97904.66
2022-09-06T21:34:03.747Z,97896.94
2022-09-06T21:36:37.390Z,97906.53
2022-09-06T21:39:09.849Z,97910.34
2022-09-06T21:41:39.301Z,97898.97
2022-09-06T21:44:08.228Z,97907.94
2022-09-06T21:46:37.689Z,97899.94
2022-09-06T21:49:10.398Z,97902.75
2022-09-06T21:51:39.040Z,97914.44
2022-09-06T21:54:07.431Z,97915.06
2022-09-06T21:56:36.771Z,97910.03
2022-09-06T21:59:05.352Z,97908.06
2022-09-06T22:01:35.484Z,97905.91
2022-09-06T22:04:04.464Z,97913.97
2022-09-06T22:06:33.862Z,97914.19
2022-09-06T22:09:03.942Z,97902.59
2022-09-06T22:11:33.192Z,97905.44
2022-09-06T22:14:04.291Z,97903.25
2022-09-06T22:16:34.574Z,97904.88
2022-09-06T22:19:08.347Z,97902.28
2022-09-06T22:21:36.694Z,97903.53
2022-09-06T22:24:07.663Z,97897.53
2022-09-06T22:26:37.145Z,97904.88
2022-09-06T22:29:07.103Z,97898.47
2022-09-06T22:31:35.809Z,97902.91
2022-09-06T22:34:04.929Z,97909.84
2022-09-06T22:36:33.791Z,97904.25
2022-09-06T22:39:02.096Z,97906.06
2022-09-06T22:41:31.492Z,97900.34
2022-09-06T22:44:00.852Z,97904.19
2022-09-06T22:46:29.502Z,97899.69
2022-09-06T22:48:58.687Z,97904.13
2022-09-06T22:51:27.472Z,97902.28
2022-09-06T22:53:55.898Z,97901.81
2022-09-06T22:56:24.758Z,97897.34
2022-09-06T22:58:53.129Z,97893.75
2022-09-06T23:01:21.457Z,97894.47
2022-09-06T23:03:51.466Z,97891.59
2022-09-06T23:06:19.788Z,97897.19
2022-09-06T23:08:48.156Z,97894.31
2022-09-06T23:11:17.383Z,97884.91
2022-09-06T23:13:46.432Z,97890.31
2022-09-06T23:16:18.940Z,97885.69
2022-09-06T23:18:48.086Z,97888.63
2022-09-06T23:21:18.231Z,97883.72
2022-09-06T23:23:47.127Z,97881.91
2022-09-06T23:26:20.054Z,97885.06
2022-09-06T23:28:51.890Z,97895.94
2022-09-06T23:31:20.163Z,97896.72
2022-09-06T23:33:51.896Z,97896.34
2022-09-06T23:36:20.069Z,97890.53
2022-09-06T23:38:48.352Z,97893.41
2022-09-06T23:41:17.327Z,97892.81
2022-09-06T23:43:45.670Z,97893.41
2022-09-06T23:46:15.564Z,97891.84
2022-09-06T23:48:43.897Z,97894.41
2022-09-06T23:51:12.426Z,97890.50
2022-09-06T23:53:41.356Z,97894.91
2022-09-06T23:56:10.302Z,97892.06
2022-09-06T23:58:39.360Z,97891.09
